Dakin Peak, Santa Catalina Island Weather observations

Data are for 10 minute period ending at time listed.
 Day   Time   Solar   Ave.   Ave.  Ave.  Vector    Max.   Stn.    Total
  of    of     Rad.   Air    Rel.  Wind   Wind     Wind   Baro.  Precip.
Year   Day            Temp.  Hum.  Speed  Dir.     Gust   Pres.         
2016   (PST)   W/m2    F      %     mph   deg.      mph    mb.     in.  
------------------------------------------------------------------------
 126   15:00  463.0    59   68.1    10    232.9    14.3    999.0   0.00  
 126   15:10  371.0    58   69.0    12    233.3    19.1    999.0   0.00  
 126   15:20  319.0    58   67.4    10    223.6    19.1    999.0   0.00  
 126   15:30  438.0    58   69.2    12    237.3    20.9    999.0   0.00  
 126   15:40  457.0    61   62.0     7    222.4    13.7    999.0   0.00  
 126   15:50  290.0    59   66.2    10    237.7    15.5    999.0   0.00  
 126   16:00  182.0    57   70.4    12    240.3    16.1    999.0   0.00  
 126   16:10  159.0    56   73.2    12    237.6    15.5    999.0   0.00  
 126   16:20  121.0    56   74.8    11    241.5    14.9    999.0   0.00  
 126   16:30  107.0    56   75.1     9    244.9    14.3    999.0   0.00  
 126   16:40   88.0    56   75.9     9    242.1    13.1    999.0   0.00  
 126   16:50   87.0    56   76.3    11    237.5    16.7    999.0   0.00  
 126   17:00   91.0    55   77.8    12    244.0    16.1    999.0   0.00  
 126   17:10   93.0    55   79.6    12    241.2    16.7    999.0   0.00  
 126   17:20   55.0    55   80.4    11    241.0    14.9    999.0   0.00  
 126   17:30   37.0    54   81.5    12    241.3    15.5    999.0   0.00  
 126   17:40   36.0    54   83.9    11    247.2    14.9    999.0   0.00  
 126   17:50   13.0    54   87.4    11    242.1    14.9    999.0   0.00  
 126   18:00   17.0    54   88.3    13    241.0    16.7    999.0   0.00  
 126   18:10   10.0    54   87.8    13    241.2    16.1    999.0   0.00  
 126   18:20    6.0    54   90.6    11    237.4    17.3    999.0   0.00  
 126   18:30    8.0    54   89.8     9    239.6    14.3    999.0   0.00  
 126   18:40    2.0    53   91.6    11    239.9    16.1    999.0   0.00  
 126   18:50    0.0    53   91.0    12    239.0    17.9    999.0   0.00  
 126   19:00    0.0    53   88.6    10    239.2    13.1    999.0   0.00  
 126   19:10    0.0    53   89.7    10    235.6    14.3    999.0   0.00  
 126   19:20    0.0    53   89.3    11    238.7    16.1    999.0   0.00  
 126   19:30    0.0    53   89.4    10    242.9    14.9    999.0   0.00  
 126   19:40    0.0    52   89.6    10    250.1    13.7    999.0   0.00  
 126   19:50    0.0    52   90.2     9    252.4    13.7    999.0   0.00  
 126   20:00    0.0    52   89.5     8    253.5     9.6    999.0   0.00  
 126   20:10    0.0    52   88.0     8    242.7     9.6    999.0   0.00  
 126   20:20    0.0    52   88.4     9    242.7    11.3    999.0   0.00  
 126   20:30    0.0    52   89.0     9    247.4    10.8    999.0   0.00  
 126   20:40    0.0    52   88.1    10    246.7    13.1    999.0   0.00  
 126   20:50    0.0    52   88.4    13    244.4    16.7    999.0   0.00  
 126   21:00    0.0    52   88.3    13    247.3    16.1    999.0   0.00  
 126   21:10    0.0    52   86.2    12    246.4    14.9    999.0   0.00  
 126   21:20    0.0    52   85.3    13    245.1    15.5    999.0   0.00  
 126   21:30    0.0    52   85.3    14    243.8    15.5    999.0   0.00  
 126   21:40    0.0    52   85.8    13    244.2    15.5    999.0   0.00  
 126   21:50    0.0    52   83.1    12    244.0    14.3    999.0   0.00  
 126   22:00    0.0    52   84.1    12    242.7    13.1    999.0   0.00  
 126   22:10    0.0    52   81.8    10    244.6    11.9    999.0   0.00  
 126   22:20    0.0    52   78.5     8    244.9    10.8    999.0   0.00  
 126   22:30    0.0    52   78.5     8    251.9     9.0    999.0   0.00  
 126   22:40    0.0    52   79.0     8    253.3     9.0    999.0   0.00  
 126   22:50    0.0    52   79.1     8    260.6     9.0    999.0   0.00  
 126   23:00    0.0    52   78.4     8    256.7    10.2    999.0   0.00  
 126   23:10    0.0    53   78.3     8    255.0    10.2    999.0   0.00  
 126   23:20    0.0    52   78.8     9    248.6    10.8    999.0   0.00  
 126   23:30    0.0    52   79.2     9    246.6    10.8    999.0   0.00  
 126   23:40    0.0    52   79.6     9    247.0    10.8    999.0   0.00  
 126   23:50    0.0    52   80.4     8    243.7     9.6    999.0   0.00  
 127    0:00    0.0    52   81.7     7    244.1     9.0    999.0   0.00  
 127    0:10    0.0    52   83.1     5    240.3     7.8    999.0   0.00  
 127    0:20    0.0    52   84.0     2    275.3     4.2    999.0   0.00  
 127    0:30    0.0    52   84.6     2    230.3     4.2    999.0   0.00  
 127    0:40    0.0    52   87.3     5    244.9     7.8    999.0   0.00  
 127    0:50    0.0    52   90.6     6    241.3     9.6    999.0   0.00  
 127    1:00    0.0    51   91.8     8    245.7     9.6    999.0   0.00  
 127    1:10    0.0    51   92.2     7    239.7     9.0    999.0   0.00  
 127    1:20    0.0    51   92.6     4    244.0     6.0    999.0   0.00  
 127    1:30    0.0    51   93.4     6    242.0     9.6    999.0   0.00  
 127    1:40    0.0    51   94.0     8    241.9    10.8    999.0   0.00  
 127    1:50    0.0    50   94.1     4    217.7     6.0    999.0   0.00  
 127    2:00    0.0    51   90.0     4    168.0     6.0    999.0   0.00  
 127    2:10    0.0    51   87.0     2    161.1     4.2    999.0   0.00  
 127    2:20    0.0    50   92.9     5    264.1     7.2    999.0   0.00  
 127    2:30    0.0    50   94.8     9    261.8    10.2    999.0   0.00  
 127    2:40    0.0    50   95.2    10    260.4    12.5    999.0   0.00  
 127    2:50    0.0    50   95.7    10    258.0    12.5    999.0   0.00  
 127    3:00    0.0    50   95.8     8    255.6    10.8    999.0   0.00  
 127    3:10    0.0    50   95.7     7    255.5     8.4    999.0   0.00  
 127    3:20    0.0    50   94.5     8    254.1     9.0    999.0   0.00  
 127    3:30    0.0    50   92.9     8    254.0     9.6    999.0   0.00  
 127    3:40    0.0    50   93.7     9    254.5    10.8    999.0   0.00  
 127    3:50    0.0    50   93.0    10    255.1    10.8    999.0   0.00  
 127    4:00    0.0    50   91.7     8    253.3     9.6    999.0   0.00  
 127    4:10    0.0    50   92.3     9    255.3    11.3    999.0   0.00  
 127    4:20    0.0    50   95.1     9    256.8    10.8    999.0   0.00  
 127    4:30    0.0    50   94.9     8    253.3     9.6    999.0   0.00  
 127    4:40    0.0    50   95.2     4    274.0     8.4    999.0   0.00  
 127    4:50    0.0    50   95.2     2     50.6     3.0    999.0   0.00  
 127    5:00    0.0    50   92.8     2    137.1     3.6    999.0   0.00  
 127    5:10    3.0    51   89.7     2    256.6     3.6    999.0   0.00  
 127    5:20    9.0    51   89.7     4    296.5     6.0    999.0   0.00  
 127    5:30   17.0    51   90.0     4    308.6     5.4    999.0   0.00  
 127    5:40   25.0    52   90.5     2    232.2     4.2    999.0   0.00  
 127    5:50   35.0    51   92.1     5    250.0     7.2    999.0   0.00  
 127    6:00   52.0    51   92.5     6    267.6     7.2    999.0   0.00  
 127    6:10   69.0    52   91.8     5    273.9     6.6    999.0   0.00  
 127    6:20   75.0    52   89.3     4    312.7     5.4    999.0   0.00  
 127    6:30   93.0    52   88.3     3    341.6     4.8    999.0   0.00  
 127    6:40  113.0    53   87.4     3     10.1     4.8    999.0   0.00  
 127    6:50  124.0    53   87.8     4    356.0     6.0    999.0   0.00  
 127    7:00   84.0    53   90.7     4    332.7     5.4    999.0   0.00  
 127    7:10  106.0    53   91.2     3    358.9     4.8    999.0   0.00  
 127    7:20  130.0    53   88.6     1    265.2     4.2    999.0   0.00  
 127    7:30  169.0    54   86.2     1    254.4     4.8    999.0   0.00  
 127    7:40  200.0    54   84.2     2    260.6     4.8    999.0   0.00  
 127    7:50  285.0    56   80.0     2    255.9     5.4    999.0   0.00  
 127    8:00  160.0    57   77.9     2     23.3     4.2    999.0   0.00  
 127    8:10  148.0    55   85.8     5    230.4     8.4    999.0   0.00  
 127    8:20  107.0    53   91.4     8    237.4    11.9    999.0   0.00  
 127    8:30   63.0    52   93.8     6    250.0    10.8    999.0   0.02  
 127    8:40   95.0    51   94.2     5    275.8     6.0    999.0   0.02  
 127    8:50  102.0    51   93.0     3    275.1     4.2    999.0   0.01  
 127    9:00  112.0    52   93.2     4    272.4     6.0    999.0   0.01  
 127    9:10   95.0    52   93.4     4    273.2     4.8    999.0   0.00  
 127    9:20  121.0    52   93.5     2    259.3     4.8    999.0   0.00  
 127    9:30  204.0    53   92.2     1    230.0     3.0    999.0   0.01  
 127    9:40  351.0    54   90.0     2    235.3     3.6    999.0   0.00  
 127    9:50  346.0    55   88.3     2    280.2     4.8    999.0   0.00  
 127   10:00  321.0    56   86.9     3    295.4     6.0    999.0   0.00  
 127   10:10  590.0    57   89.0     2    181.3     5.4    999.0   0.00  
 127   10:20  259.0    57   92.0     4     98.6     7.2    999.0   0.00  
 127   10:30  150.0    55   94.2     3    117.9     5.4    999.0   0.00  
 127   10:40  302.0    56   94.2     2    128.4     3.6    999.0   0.00  
 127   10:50  428.0    57   91.0     3    218.6     8.4    999.0   0.00  
 127   11:00  251.0    57   89.0     4    227.8     7.8    999.0   0.00  
 127   11:10  359.0    55   89.1     6    236.3    10.2    999.0   0.00  
 127   11:20  497.0    56   86.2     6    242.0    11.3    999.0   0.00  
 127   11:30  383.0    56   85.8     6    232.9    10.2    999.0   0.00  
 127   11:40  500.0    57   83.8     6    243.8    11.3    999.0   0.00  
 127   11:50  462.0    58   85.6     4    214.9     7.2    999.0   0.00  
 127   12:00  641.0    59   83.9     3    178.6     6.0    999.0   0.00  
 127   12:10  707.0    60   81.0     4    162.7     7.2    999.0   0.00  
 127   12:20  718.0    62   75.9     4    190.9     7.8    999.0   0.00  
 127   12:30  678.0    62   77.0     3    137.7     6.0    999.0   0.00  
 127   12:40  780.0    62   76.1     4    212.1     9.0    999.0   0.00  
 127   12:50  824.0    61   77.4     6    215.0    11.3    999.0   0.00  
 127   13:00  704.0    59   77.8     6    246.7    10.8    999.0   0.00  
 127   13:10  864.0    60   76.5     6    236.3    11.3    999.0   0.00  
 127   13:20  896.0    59   77.0     8    234.4    12.5    999.0   0.00  
 127   13:30  757.0    59   75.7     8    234.1    13.1    999.0   0.00  
 127   13:40  827.0    59   75.9     8    232.1    13.7    999.0   0.00  
 127   13:50  748.0    59   78.4     8    239.2    15.5    999.0   0.00  
 127   14:00  779.0    58   79.5    10    235.8    14.9    999.0   0.00  
 127   14:10  803.0    58   76.7    10    237.0    17.3    999.0   0.00  
 127   14:20  761.0    58   74.9    12    234.4    18.5    999.0   0.00  
 127   14:30  724.0    58   74.7    11    236.5    17.9    999.0   0.00  
 127   14:40  682.0    58   73.2    13    236.1    17.3    999.0   0.00  
 127   14:50  502.0    57   75.5    13    237.8    17.9    999.0   0.00  

Return to Dakin Peak graphs page.


Western Regional Climate Center,wrcc@dri.edu